createdAt,value
2022-11-06T00:00:45.515Z,5.70
2022-11-06T00:03:16.328Z,5.10
2022-11-06T00:06:04.685Z,3.80
2022-11-06T00:08:35.285Z,6.80
2022-11-06T00:11:10.425Z,4.30
2022-11-06T00:13:38.804Z,5.80
2022-11-06T00:16:09.098Z,5.60
2022-11-06T00:18:38.747Z,3.63
2022-11-06T00:21:10.821Z,6.67
2022-11-06T00:23:39.348Z,6.00
2022-11-06T00:26:10.714Z,5.57
2022-11-06T00:28:39.230Z,3.97
2022-11-06T00:31:08.682Z,6.37
2022-11-06T00:33:39.935Z,6.03
2022-11-06T00:36:12.450Z,5.83
2022-11-06T00:38:40.910Z,5.80
2022-11-06T00:41:12.603Z,4.03
2022-11-06T00:43:41.609Z,4.00
2022-11-06T00:46:12.248Z,2.87
2022-11-06T00:48:41.391Z,3.43
2022-11-06T00:51:12.194Z,2.83
2022-11-06T00:53:40.557Z,2.93
2022-11-06T00:56:12.427Z,4.13
2022-11-06T00:58:41.350Z,3.47
2022-11-06T01:01:11.709Z,5.20
2022-11-06T01:03:40.881Z,4.80
2022-11-06T01:06:10.744Z,4.33
2022-11-06T01:08:39.452Z,6.00
2022-11-06T01:11:09.996Z,4.07
2022-11-06T01:13:42.497Z,3.37
2022-11-06T01:16:12.658Z,3.77
2022-11-06T01:18:44.659Z,4.80
2022-11-06T01:21:15.146Z,3.40
2022-11-06T01:23:44.375Z,4.10
2022-11-06T01:26:14.723Z,4.90
2022-11-06T01:28:44.434Z,4.80
2022-11-06T01:31:14.855Z,3.07
2022-11-06T01:33:43.390Z,3.77
2022-11-06T01:36:13.124Z,3.57
2022-11-06T01:38:42.138Z,4.80
2022-11-06T01:41:13.009Z,3.13
2022-11-06T01:43:52.103Z,6.30
2022-11-06T01:46:22.177Z,5.10
2022-11-06T01:48:53.678Z,4.57
2022-11-06T01:51:24.923Z,5.27
2022-11-06T01:53:54.666Z,4.40
2022-11-06T01:56:24.438Z,3.40
2022-11-06T01:58:56.221Z,4.13
2022-11-06T02:01:24.847Z,3.83
2022-11-06T02:03:59.164Z,4.50
2022-11-06T02:06:27.908Z,4.37
2022-11-06T02:08:56.441Z,3.90
2022-11-06T02:11:24.763Z,3.60
2022-11-06T02:14:03.236Z,4.47
2022-11-06T02:16:40.006Z,4.07
2022-11-06T02:19:29.385Z,2.67
2022-11-06T02:22:27.104Z,4.50
2022-11-06T02:25:14.443Z,4.00
2022-11-06T02:27:47.660Z,3.83
2022-11-06T02:30:17.820Z,6.30
2022-11-06T02:32:50.083Z,3.33
2022-11-06T02:35:23.704Z,2.70
2022-11-06T02:37:57.492Z,4.20
2022-11-06T02:40:33.475Z,3.13
2022-11-06T02:43:10.199Z,3.37
2022-11-06T02:45:43.135Z,4.20
2022-11-06T02:48:18.823Z,3.60
2022-11-06T02:50:50.226Z,3.37
2022-11-06T02:53:21.427Z,4.53
2022-11-06T02:55:52.201Z,6.60
2022-11-06T02:58:25.645Z,4.57
2022-11-06T03:00:59.987Z,3.73
2022-11-06T03:03:31.257Z,3.23
2022-11-06T03:06:05.592Z,5.00
2022-11-06T03:08:39.929Z,3.40
2022-11-06T03:11:19.549Z,2.63
2022-11-06T03:13:55.449Z,3.70
2022-11-06T03:16:30.447Z,3.17
2022-11-06T03:19:05.115Z,5.70
2022-11-06T03:21:39.675Z,6.17
2022-11-06T03:24:28.238Z,3.07
2022-11-06T03:27:00.763Z,4.97
2022-11-06T03:29:37.613Z,3.17
2022-11-06T03:32:14.471Z,2.70
2022-11-06T03:34:46.277Z,3.53
2022-11-06T03:37:18.084Z,3.90
2022-11-06T03:39:49.727Z,3.30
2022-11-06T03:42:22.785Z,1.90
2022-11-06T03:44:56.224Z,3.67
2022-11-06T03:47:29.079Z,4.43
2022-11-06T03:50:02.307Z,3.03
2022-11-06T03:52:35.144Z,3.40
2022-11-06T03:55:06.838Z,3.20
2022-11-06T03:57:40.043Z,7.10
2022-11-06T04:00:15.295Z,3.70
2022-11-06T04:02:46.509Z,3.60
2022-11-06T04:05:21.289Z,5.80
2022-11-06T04:08:06.929Z,5.27
2022-11-06T04:11:08.895Z,4.20
2022-11-06T04:13:56.857Z,6.10
2022-11-06T04:16:27.638Z,3.90
2022-11-06T04:18:55.862Z,4.00
2022-11-06T04:21:32.285Z,3.20
2022-11-06T04:24:41.694Z,3.20
2022-11-06T04:27:23.639Z,3.87
2022-11-06T04:30:09.105Z,3.70
2022-11-06T04:33:00.471Z,3.33
2022-11-06T04:35:36.544Z,3.60
2022-11-06T04:38:11.011Z,3.03
2022-11-06T04:40:52.794Z,3.80
2022-11-06T04:43:28.683Z,2.73
2022-11-06T04:45:59.615Z,4.77
2022-11-06T04:48:30.806Z,3.30
2022-11-06T04:51:07.252Z,3.30
2022-11-06T04:53:36.405Z,2.77
2022-11-06T04:56:12.239Z,3.13
2022-11-06T04:58:40.523Z,2.77
2022-11-06T05:01:09.683Z,3.10
2022-11-06T05:03:41.150Z,4.43
2022-11-06T05:06:10.040Z,3.30
2022-11-06T05:08:38.489Z,4.30
2022-11-06T05:11:06.916Z,2.87
2022-11-06T05:13:35.383Z,2.73
2022-11-06T05:16:09.510Z,4.13
2022-11-06T05:18:39.211Z,4.10
2022-11-06T05:21:24.664Z,3.60
2022-11-06T05:23:53.013Z,4.20
2022-11-06T05:26:23.078Z,3.83
2022-11-06T05:28:53.800Z,2.50
2022-11-06T05:31:22.020Z,2.63
2022-11-06T05:33:51.662Z,3.07
2022-11-06T05:36:19.930Z,2.30
2022-11-06T05:38:48.180Z,3.30
2022-11-06T05:41:16.388Z,2.23
2022-11-06T05:43:44.774Z,2.27
2022-11-06T05:46:35.629Z,2.23
2022-11-06T05:49:02.812Z,2.10
2022-11-06T05:51:30.985Z,2.47
2022-11-06T05:53:59.160Z,2.33
2022-11-06T05:56:27.586Z,2.43
2022-11-06T05:58:55.773Z,2.40
2022-11-06T06:01:24.013Z,2.20
2022-11-06T06:03:52.268Z,2.87
2022-11-06T06:06:22.230Z,2.87
2022-11-06T06:08:50.421Z,2.60
2022-11-06T06:11:20.882Z,3.77
2022-11-06T06:13:49.467Z,2.13
2022-11-06T06:16:17.639Z,2.20
2022-11-06T06:18:45.997Z,3.67
2022-11-06T06:21:14.304Z,2.23
2022-11-06T06:23:47.302Z,2.90
2022-11-06T06:26:15.630Z,2.10
2022-11-06T06:28:49.307Z,1.97
2022-11-06T06:31:17.815Z,2.20
2022-11-06T06:33:46.097Z,3.23
2022-11-06T06:36:14.246Z,3.50
2022-11-06T06:38:43.897Z,3.40
2022-11-06T06:41:12.058Z,2.30
2022-11-06T06:43:40.354Z,3.10
2022-11-06T06:46:08.856Z,2.43
2022-11-06T06:48:37.239Z,3.10
2022-11-06T06:51:07.954Z,2.07
2022-11-06T06:53:37.174Z,4.13
2022-11-06T06:56:07.742Z,2.93
2022-11-06T06:58:35.962Z,3.10
2022-11-06T07:01:06.064Z,3.17
2022-11-06T07:03:37.358Z,3.40
2022-11-06T07:06:07.312Z,3.00
2022-11-06T07:08:35.641Z,3.10
2022-11-06T07:11:07.103Z,3.50
2022-11-06T07:13:36.522Z,2.80
2022-11-06T07:16:05.755Z,3.03
2022-11-06T07:18:34.166Z,4.10
2022-11-06T07:21:05.114Z,3.10
2022-11-06T07:23:33.691Z,3.00
2022-11-06T07:26:02.097Z,4.10
2022-11-06T07:28:31.780Z,3.40
2022-11-06T07:31:00.796Z,2.20
2022-11-06T07:33:29.849Z,2.23
2022-11-06T07:36:03.214Z,3.47
2022-11-06T07:38:31.442Z,3.50
2022-11-06T07:41:03.111Z,3.03
2022-11-06T07:43:33.071Z,4.87
2022-11-06T07:46:03.532Z,3.00
2022-11-06T07:48:32.792Z,5.53
2022-11-06T07:51:03.337Z,3.13
2022-11-06T07:53:31.552Z,3.47
2022-11-06T07:56:00.140Z,4.70
2022-11-06T07:58:28.654Z,3.03
2022-11-06T08:00:59.643Z,3.20
2022-11-06T08:03:30.432Z,5.80
2022-11-06T08:05:58.929Z,5.87
2022-11-06T08:08:30.320Z,6.07
2022-11-06T08:11:03.234Z,4.33
2022-11-06T08:13:32.562Z,2.43
2022-11-06T08:16:07.249Z,3.60
2022-11-06T08:18:36.033Z,4.13
2022-11-06T08:21:05.129Z,2.90
2022-11-06T08:23:36.513Z,2.50
2022-11-06T08:26:07.383Z,3.17
2022-11-06T08:28:36.154Z,3.50
2022-11-06T08:31:09.666Z,2.47
2022-11-06T08:33:39.300Z,3.40
2022-11-06T08:36:09.605Z,2.70
2022-11-06T08:38:48.778Z,5.47
2022-11-06T08:41:36.950Z,2.87
2022-11-06T08:44:05.543Z,3.87
2022-11-06T08:46:35.460Z,3.93
2022-11-06T08:49:03.777Z,3.80
2022-11-06T08:51:31.996Z,2.97
2022-11-06T08:54:00.366Z,2.47
2022-11-06T08:56:28.613Z,3.27
2022-11-06T08:58:57.113Z,2.90
2022-11-06T09:01:25.501Z,5.37
2022-11-06T09:03:55.283Z,2.40
2022-11-06T09:06:26.008Z,3.07
2022-11-06T09:08:54.324Z,2.20
2022-11-06T09:11:25.076Z,2.10
2022-11-06T09:13:55.578Z,6.00
2022-11-06T09:16:27.482Z,2.97
2022-11-06T09:18:57.886Z,2.80
2022-11-06T09:21:26.359Z,3.13
2022-11-06T09:23:54.725Z,5.50
2022-11-06T09:26:22.992Z,3.33
2022-11-06T09:28:51.209Z,3.30
2022-11-06T09:31:19.534Z,3.83
2022-11-06T09:33:47.924Z,5.60
2022-11-06T09:36:17.439Z,4.33
2022-11-06T09:38:45.660Z,3.57
2022-11-06T09:41:19.728Z,3.70
2022-11-06T09:44:06.122Z,5.17
2022-11-06T09:46:40.510Z,4.47
2022-11-06T09:49:19.254Z,6.67
2022-11-06T09:51:53.702Z,4.07
2022-11-06T09:54:29.535Z,4.77
2022-11-06T09:57:04.401Z,4.50
2022-11-06T09:59:37.215Z,8.57
2022-11-06T10:02:19.300Z,3.60
2022-11-06T10:04:54.240Z,7.10
2022-11-06T10:07:30.319Z,3.97
2022-11-06T10:10:00.330Z,4.60
2022-11-06T10:12:38.519Z,5.17
2022-11-06T10:15:19.538Z,3.30
2022-11-06T10:18:00.104Z,3.50
2022-11-06T10:20:32.964Z,5.03
2022-11-06T10:23:14.360Z,6.40
2022-11-06T10:25:53.298Z,4.27
2022-11-06T10:28:36.662Z,3.73
2022-11-06T10:31:12.284Z,7.33
2022-11-06T10:33:47.797Z,6.30
2022-11-06T10:36:19.186Z,6.33
2022-11-06T10:38:51.924Z,7.13
2022-11-06T10:41:23.828Z,6.23
2022-11-06T10:44:02.679Z,3.20
2022-11-06T10:46:36.455Z,5.40
2022-11-06T10:49:12.652Z,4.77
2022-11-06T10:51:53.108Z,8.53
2022-11-06T10:54:35.557Z,3.90
2022-11-06T10:57:33.513Z,3.87
2022-11-06T11:00:01.835Z,3.00
2022-11-06T11:02:33.120Z,7.47
2022-11-06T11:05:01.572Z,3.87
2022-11-06T11:07:35.288Z,5.03
2022-11-06T11:10:26.887Z,4.43
2022-11-06T11:12:56.706Z,3.63
2022-11-06T11:15:27.127Z,5.40
2022-11-06T11:18:18.708Z,3.43
2022-11-06T11:20:48.781Z,6.80
2022-11-06T11:23:20.335Z,5.03
2022-11-06T11:25:52.165Z,5.93
2022-11-06T11:28:30.213Z,3.87
2022-11-06T11:31:06.212Z,3.40
2022-11-06T11:33:35.359Z,4.07
2022-11-06T11:36:10.955Z,3.93
2022-11-06T11:38:41.448Z,4.80
2022-11-06T11:41:23.158Z,4.77
2022-11-06T11:43:58.659Z,4.70
2022-11-06T11:46:28.041Z,6.67
2022-11-06T11:48:59.853Z,5.53
2022-11-06T11:51:31.714Z,7.57
2022-11-06T11:54:06.054Z,5.10
2022-11-06T11:59:39.386Z,7.57
2022-11-06T12:02:18.210Z,6.37
2022-11-06T12:04:53.693Z,6.93
2022-11-06T12:07:27.404Z,5.30
2022-11-06T12:09:56.214Z,4.83
2022-11-06T12:12:29.220Z,4.87
2022-11-06T12:15:19.989Z,2.90
2022-11-06T12:17:56.680Z,5.00
2022-11-06T12:20:28.804Z,5.07
2022-11-06T12:22:59.284Z,6.50
2022-11-06T12:25:32.017Z,5.23
2022-11-06T12:28:03.721Z,5.30
2022-11-06T12:30:34.319Z,6.87
2022-11-06T12:33:11.868Z,6.30
2022-11-06T12:35:47.824Z,6.47
2022-11-06T12:38:25.947Z,4.40
2022-11-06T12:41:00.644Z,5.97
2022-11-06T12:43:38.544Z,7.67
2022-11-06T12:46:26.096Z,6.57
2022-11-06T12:49:23.019Z,4.80
2022-11-06T12:52:06.179Z,5.70
2022-11-06T12:54:51.013Z,8.40
2022-11-06T12:57:31.544Z,4.47
2022-11-06T13:00:09.587Z,7.97
2022-11-06T13:02:54.819Z,7.83
2022-11-06T13:05:33.467Z,7.43
2022-11-06T13:08:26.123Z,6.80
2022-11-06T13:11:07.747Z,5.53
2022-11-06T13:13:48.724Z,3.73
2022-11-06T13:16:29.215Z,9.33
2022-11-06T13:19:10.752Z,5.10
2022-11-06T13:22:02.984Z,4.60
2022-11-06T13:24:36.474Z,5.00
2022-11-06T13:27:12.033Z,4.93
2022-11-06T13:29:43.389Z,3.60
2022-11-06T13:32:17.169Z,5.10
2022-11-06T13:34:54.772Z,4.87
2022-11-06T13:37:40.222Z,4.70
2022-11-06T13:40:22.007Z,5.80
2022-11-06T13:42:54.605Z,4.20
2022-11-06T13:45:24.121Z,3.93
2022-11-06T13:48:06.407Z,4.67
2022-11-06T13:50:51.011Z,5.43
2022-11-06T13:53:24.617Z,5.33
2022-11-06T13:56:07.496Z,4.87
2022-11-06T13:59:07.145Z,5.73
2022-11-06T14:01:49.902Z,4.57
2022-11-06T14:04:41.546Z,6.90
2022-11-06T14:07:14.353Z,4.90
2022-11-06T14:09:46.524Z,5.10
2022-11-06T14:12:20.625Z,3.80
2022-11-06T14:15:14.821Z,5.00
2022-11-06T14:17:43.291Z,4.60
2022-11-06T14:20:41.909Z,6.10
2022-11-06T14:23:48.252Z,4.97
2022-11-06T14:26:40.896Z,3.93
2022-11-06T14:29:55.364Z,4.90
2022-11-06T14:32:49.639Z,3.70
2022-11-06T14:35:53.175Z,2.90
2022-11-06T14:38:38.242Z,5.10
2022-11-06T14:41:49.932Z,5.10
2022-11-06T14:44:47.404Z,4.20
2022-11-06T14:47:35.348Z,4.20
2022-11-06T14:50:08.471Z,3.63
2022-11-06T14:52:50.113Z,3.30
2022-11-06T14:55:28.432Z,2.97
2022-11-06T14:58:02.238Z,3.90
2022-11-06T15:00:38.445Z,4.00
2022-11-06T15:03:17.928Z,3.97
2022-11-06T15:05:51.950Z,5.30
2022-11-06T15:09:02.694Z,4.17
2022-11-06T15:11:54.241Z,5.97
2022-11-06T15:14:57.347Z,4.40
2022-11-06T15:17:37.024Z,4.00
2022-11-06T15:20:26.567Z,4.20
2022-11-06T15:23:04.312Z,4.87
2022-11-06T15:25:37.904Z,6.37
2022-11-06T15:28:13.454Z,5.27
2022-11-06T15:30:47.083Z,4.43
2022-11-06T15:33:32.774Z,5.60
2022-11-06T15:36:08.449Z,5.47
2022-11-06T15:38:43.426Z,5.00
2022-11-06T15:41:19.018Z,5.80
2022-11-06T15:43:50.227Z,4.70
2022-11-06T15:46:24.973Z,4.30
2022-11-06T15:49:16.317Z,5.43
2022-11-06T15:51:52.233Z,6.83
2022-11-06T15:54:32.634Z,5.60
2022-11-06T15:57:04.354Z,3.17
2022-11-06T15:59:33.201Z,4.17
2022-11-06T16:02:06.707Z,3.97
2022-11-06T16:04:35.913Z,3.03
2022-11-06T16:07:05.792Z,3.07
2022-11-06T16:09:34.358Z,3.70
2022-11-06T16:12:04.302Z,2.77
2022-11-06T16:14:33.498Z,4.33
2022-11-06T16:17:11.646Z,4.17
2022-11-06T16:19:41.103Z,2.93
2022-11-06T16:22:12.077Z,3.50
2022-11-06T16:24:44.995Z,2.67
2022-11-06T16:27:15.367Z,2.57
2022-11-06T16:29:48.650Z,4.17
2022-11-06T16:32:19.143Z,3.53
2022-11-06T16:34:48.461Z,2.83
2022-11-06T16:37:38.333Z,3.80
2022-11-06T16:40:23.398Z,4.47
2022-11-06T16:43:04.471Z,5.70
2022-11-06T16:45:32.887Z,6.53
2022-11-06T16:48:29.397Z,5.30
2022-11-06T16:51:00.101Z,5.80
2022-11-06T16:53:30.655Z,5.60
2022-11-06T16:56:01.571Z,5.53
2022-11-06T16:58:34.559Z,8.57
2022-11-06T17:01:05.002Z,7.80
2022-11-06T17:03:40.642Z,4.90
2022-11-06T17:06:22.880Z,4.30
2022-11-06T17:09:10.195Z,4.63
2022-11-06T17:11:38.987Z,6.20
2022-11-06T17:14:20.362Z,5.03
2022-11-06T17:16:50.781Z,4.30
2022-11-06T17:19:19.654Z,4.10
2022-11-06T17:21:48.644Z,5.10
2022-11-06T17:27:08.212Z,5.50
2022-11-06T17:29:38.963Z,4.27
2022-11-06T17:32:07.431Z,6.47
2022-11-06T17:34:35.694Z,3.00
2022-11-06T17:37:06.971Z,3.60
2022-11-06T17:39:35.603Z,4.60
2022-11-06T17:42:06.192Z,4.80
2022-11-06T17:44:34.481Z,7.33
2022-11-06T17:47:06.139Z,6.13
2022-11-06T17:49:35.547Z,5.90
2022-11-06T17:52:03.703Z,5.47
2022-11-06T17:54:33.602Z,6.33
2022-11-06T17:57:04.811Z,5.60
2022-11-06T17:59:38.416Z,7.40
2022-11-06T18:02:08.733Z,4.97
2022-11-06T18:04:42.201Z,5.60
2022-11-06T18:07:11.054Z,6.10
2022-11-06T18:09:39.260Z,5.30
2022-11-06T18:12:09.906Z,7.00
2022-11-06T18:14:38.266Z,8.00
2022-11-06T18:17:10.782Z,5.00
2022-11-06T18:19:38.949Z,6.60
2022-11-06T18:22:07.221Z,9.93
2022-11-06T18:24:44.108Z,5.93
2022-11-06T18:27:15.361Z,5.83
2022-11-06T18:29:46.785Z,5.97
2022-11-06T18:32:16.628Z,4.40
2022-11-06T18:34:45.492Z,5.00
2022-11-06T18:37:17.881Z,5.43
2022-11-06T18:39:46.119Z,6.13
2022-11-06T18:42:14.345Z,4.37
2022-11-06T18:44:42.514Z,7.43
2022-11-06T18:47:10.972Z,5.47
2022-11-06T18:49:40.717Z,4.40
2022-11-06T18:52:09.017Z,5.90
2022-11-06T18:54:37.488Z,4.60
2022-11-06T18:57:08.731Z,5.63
2022-11-06T18:59:36.920Z,4.53
2022-11-06T19:02:05.301Z,6.93
2022-11-06T19:04:33.667Z,5.93
2022-11-06T19:07:04.589Z,7.93
2022-11-06T19:09:38.324Z,5.27
2022-11-06T19:12:09.308Z,6.47
2022-11-06T19:14:37.549Z,9.00
2022-11-06T19:17:11.404Z,7.47
2022-11-06T19:19:40.903Z,5.53
2022-11-06T19:22:13.743Z,3.50
2022-11-06T19:24:41.916Z,6.07
2022-11-06T19:27:13.098Z,6.17
2022-11-06T19:29:45.668Z,4.50
2022-11-06T19:32:14.045Z,7.83
2022-11-06T19:34:45.081Z,5.57
2022-11-06T19:37:15.143Z,6.07
2022-11-06T19:39:43.395Z,4.37
2022-11-06T19:42:12.318Z,8.40
2022-11-06T19:44:48.158Z,7.73
2022-11-06T19:47:16.409Z,4.00
2022-11-06T19:49:44.749Z,5.20
2022-11-06T19:52:42.159Z,8.20
2022-11-06T19:55:25.836Z,4.23
2022-11-06T19:57:51.461Z,4.70
2022-11-06T20:00:19.764Z,6.27
2022-11-06T20:02:50.280Z,7.17
2022-11-06T20:05:18.832Z,6.00
2022-11-06T20:07:48.475Z,6.07
2022-11-06T20:10:19.024Z,6.40
2022-11-06T20:12:47.518Z,4.10
2022-11-06T20:15:18.793Z,6.23
2022-11-06T20:17:51.435Z,5.40
2022-11-06T20:20:19.852Z,9.73
2022-11-06T20:22:49.703Z,7.50
2022-11-06T20:25:18.129Z,7.60
2022-11-06T20:27:46.684Z,7.57
2022-11-06T20:30:15.156Z,7.40
2022-11-06T20:32:44.502Z,7.10
2022-11-06T20:35:16.707Z,7.20
2022-11-06T20:37:45.320Z,5.17
2022-11-06T20:40:15.154Z,5.20
2022-11-06T20:42:43.350Z,3.57
2022-11-06T20:45:14.885Z,5.77
2022-11-06T20:47:43.248Z,6.37
2022-11-06T20:50:11.566Z,3.30
2022-11-06T20:52:39.895Z,7.40
2022-11-06T20:55:08.615Z,6.47
2022-11-06T20:57:38.178Z,7.00
2022-11-06T21:00:07.302Z,6.37
2022-11-06T21:02:37.830Z,5.97
2022-11-06T21:05:06.934Z,11.23
2022-11-06T21:07:35.730Z,9.20
2022-11-06T21:10:03.974Z,7.50
2022-11-06T21:12:34.265Z,9.83
2022-11-06T21:15:04.109Z,6.40
2022-11-06T21:17:32.402Z,8.40
2022-11-06T21:20:00.570Z,7.10
2022-11-06T21:22:28.920Z,8.13
2022-11-06T21:24:57.122Z,6.43
2022-11-06T21:27:25.525Z,6.80
2022-11-06T21:29:55.959Z,5.73
2022-11-06T21:32:25.576Z,5.30
2022-11-06T21:34:53.843Z,3.87
2022-11-06T21:37:33.015Z,7.50
2022-11-06T21:40:01.621Z,7.60
2022-11-06T21:42:29.981Z,6.67
2022-11-06T21:44:58.201Z,6.23
2022-11-06T21:47:27.952Z,10.53
2022-11-06T21:49:56.121Z,9.17
2022-11-06T21:52:42.427Z,10.40
2022-11-06T21:55:28.672Z,8.53
2022-11-06T21:57:56.979Z,8.73
2022-11-06T22:00:25.133Z,9.33
2022-11-06T22:02:54.848Z,7.10
2022-11-06T22:05:23.485Z,9.43
2022-11-06T22:07:51.837Z,7.37
2022-11-06T22:10:20.016Z,6.70
2022-11-06T22:12:48.300Z,7.87
2022-11-06T22:15:16.556Z,8.60
2022-11-06T22:17:44.765Z,9.20
2022-11-06T22:20:14.648Z,10.90
2022-11-06T22:22:42.908Z,8.23
2022-11-06T22:25:12.192Z,6.57
2022-11-06T22:27:41.203Z,6.10
2022-11-06T22:30:10.843Z,7.30
2022-11-06T22:32:39.000Z,5.83
2022-11-06T22:35:07.433Z,7.03
2022-11-06T22:37:36.963Z,5.83
2022-11-06T22:40:06.651Z,8.10
2022-11-06T22:42:35.025Z,8.10
2022-11-06T22:45:03.336Z,6.50
2022-11-06T22:47:31.532Z,4.20
2022-11-06T22:49:59.681Z,6.30
2022-11-06T22:52:28.013Z,9.63
2022-11-06T22:54:57.534Z,7.40
2022-11-06T22:57:25.781Z,7.60
2022-11-06T22:59:54.085Z,6.40
2022-11-06T23:02:22.393Z,6.40
2022-11-06T23:04:50.711Z,4.40
2022-11-06T23:07:21.425Z,8.60
2022-11-06T23:09:49.703Z,10.27
2022-11-06T23:12:19.292Z,7.97
2022-11-06T23:14:47.516Z,6.40
2022-11-06T23:17:15.741Z,5.67
2022-11-06T23:19:44.135Z,5.57
2022-11-06T23:22:29.912Z,6.00
2022-11-06T23:24:58.200Z,7.63
2022-11-06T23:27:27.833Z,6.80
2022-11-06T23:30:00.603Z,5.33
2022-11-06T23:32:29.471Z,5.27
2022-11-06T23:34:57.937Z,8.57
2022-11-06T23:37:29.427Z,8.83
2022-11-06T23:39:57.774Z,6.13
2022-11-06T23:42:27.390Z,7.83
2022-11-06T23:45:12.899Z,6.93
2022-11-06T23:47:41.270Z,6.83
2022-11-06T23:50:10.058Z,7.53
2022-11-06T23:52:38.309Z,7.90
2022-11-06T23:55:07.598Z,7.63
2022-11-06T23:57:37.263Z,7.00
